Lincoln, NE

10:00 AM CST del 06 Marzo 2015 (GMT -0600)
Capitol Beach | Change Station
CLOSE
Current Station
Stazione meteo personale
Location: Lincoln, NE
Altitudine: 1134 ft
Stazioni meteo nelle vicinanze

Alt. 1134 ft 40.82 °N, 96.73 °W | Updated 0 second ago

Clear
Sereno
52.2 °F
Sembra 52.2 °F
N
0.0
Vento Variabile Vento da OSO
Gusts 4.0 mph

Oggi
Massima -- | Minima -- °F
--% Possibilità di precip.
Ieri
Massima -- | Minima -- °F
Precip. -- in
6:53 AM 6:23 PM
Luna piena, 99% visible
Pressione 30.28 in
Visibilità 10.0 miglia
Nuvole Sereno
Punto di rugiada 27 °F
Umidità 37%
Piovosità in
Spessore del manto nevoso Non disponibile.
Raggi UV 3 fuori da 12
Polline 4.50 fuori da 12
Qualità dell'aria Non disponibile.
Flu Activity Non disponibile.
METAR KLNK 061554Z 00000KT 10SM CLR 07/M07 A3025 RMK AO2 SLP253 T00671072

More Conditions Fewer Conditions

Pressione 30.28 in
Visibilità 10.0 miglia
Nuvole Sereno
Punto di rugiada 27 °F
Umidità 37%
Piovosità in
Spessore del manto nevoso Non disponibile.
Raggi UV 3 fuori da 12
Polline 4.50 fuori da 12
Qualità dell'aria Non disponibile.
Flu Activity Non disponibile.
METAR KLNK 061554Z 00000KT 10SM CLR 07/M07 A3025 RMK AO2 SLP253 T00671072

More Conditions Fewer Conditions

10-Day Weather Forecast

Almanac

Astronomia

Mar. 06, 2015 Alba Tramonto
Ora attuale
Crepuscolo civile
Crepuscolo nautico
Crepuscolo astronomico
Luna
Estensione della luce visibile
Lunghezza del giorno
Tomorrow will be .
, % of the Moon is Illuminated

Gli estremi di oggi

State Highs State Lows

Community

WunderPhotos

Upload Photos

1,803,327 foto caricate!

WunderBlogs® & News

Nearby

Qualità dell'aria

  Qualità dell'aria Indice AQ Inquinante
Not available.

Profondità neve

Stazione Profondità Altitudine

Attività sismica

Città  Distanza Mag. Data & Ora
Minimo Magnitudo Mostrato è 2.5.

Temperature delle acque costiere

Località Temperatura

Stazioni meteo nelle vicinanze